Time;durP1;ratioP1;P1;durP2;ratioP2;P2;SDS_P1;SDS_P2;PMS_P1;PMS_P2;Temp;Humidity;BMP_temperature;BMP_pressure;BME280_temperature;BME280_humidity;BME280_pressure;Samples;Min_cycle;Max_cycle;Signal;HPM_P1;HPM_P2
2022/12/18 00:00:55;;;;;;;;;;;-7.20;90.10;;;;;;5036297;28;19966;-75
2022/12/18 00:03:21;;;;;;;;;;;-7.20;90.10;;;;;;5036029;28;20650;-76
2022/12/18 00:05:47;;;;;;;;;;;-7.30;90.00;;;;;;5037044;28;19924;-75
2022/12/18 00:08:13;;;;;;;;;;;-7.30;90.00;;;;;;5033833;28;19925;-75
2022/12/18 00:10:38;;;;;;;;;;;-7.40;90.00;;;;;;5034563;28;19931;-75
2022/12/18 00:13:03;;;;;;;;;;;-7.40;90.00;;;;;;5036009;28;19932;-75
2022/12/18 00:15:29;;;;;;;;;;;-7.40;90.10;;;;;;5032520;28;19928;-76
2022/12/18 00:17:54;;;;;;;;;;;-7.40;90.10;;;;;;5034827;28;20302;-76
2022/12/18 00:20:25;;;;;;;;;;;-7.40;90.10;;;;;;5049055;28;19944;-76
2022/12/18 00:22:51;;;;;;;;;;;-7.50;90.10;;;;;;5032148;28;20378;-75
2022/12/18 00:25:17;;;;;;;;;;;-7.50;90.10;;;;;;5034646;28;19925;-75
2022/12/18 00:27:42;;;;;;;;;;;-7.50;90.10;;;;;;5033629;28;19928;-76
2022/12/18 00:30:08;;;;;;;;;;;-7.50;90.10;;;;;;5033228;28;19921;-75
2022/12/18 00:32:33;;;;;;;;;;;-7.50;90.10;;;;;;5017814;28;20382;-76
2022/12/18 00:34:59;;;;;;;;;;;-7.50;90.10;;;;;;5045299;28;19925;-75
2022/12/18 00:37:24;;;;;;;;;;;-7.60;90.10;;;;;;5031721;28;19921;-75
2022/12/18 00:39:50;;;;;;;;;;;-7.60;90.10;;;;;;5033010;28;19921;-74
2022/12/18 00:44:59;;;;;;;;;;;-7.60;90.10;;;;;;5033153;28;19932;-76
2022/12/18 00:47:25;;;;;;;;;;;-7.60;90.20;;;;;;5034216;28;20357;-75
2022/12/18 00:49:50;;;;;;;;;;;-7.60;90.20;;;;;;5034291;28;20008;-74
2022/12/18 00:52:16;;;;;;;;;;;-7.60;90.20;;;;;;5052075;28;19928;-75
2022/12/18 00:54:41;;;;;;;;;;;-7.60;90.20;;;;;;5034057;28;19944;-75
2022/12/18 00:57:06;;;;;;;;;;;-7.60;90.20;;;;;;5030862;28;19999;-77
2022/12/18 00:59:32;;;;;;;;;;;-7.60;90.20;;;;;;5050399;28;19921;-76
2022/12/18 01:01:57;;;;;;;;;;;-7.50;90.20;;;;;;5016907;28;20390;-76
2022/12/18 01:04:23;;;;;;;;;;;-7.60;90.20;;;;;;5034002;28;19981;-76
2022/12/18 01:06:48;;;;;;;;;;;-7.60;90.10;;;;;;5032331;28;19925;-76
2022/12/18 01:09:14;;;;;;;;;;;-7.60;90.20;;;;;;5033395;28;20618;-75
2022/12/18 01:11:39;;;;;;;;;;;-7.60;90.20;;;;;;5034697;28;19927;-76
2022/12/18 01:14:05;;;;;;;;;;;-7.60;90.20;;;;;;5032075;28;19921;-76
2022/12/18 01:16:30;;;;;;;;;;;-7.60;90.20;;;;;;5046303;28;19943;-75
2022/12/18 01:18:56;;;;;;;;;;;-7.60;90.20;;;;;;5049157;28;19986;-76
2022/12/18 01:21:21;;;;;;;;;;;-7.60;90.30;;;;;;5018038;28;20579;-75
2022/12/18 01:23:47;;;;;;;;;;;-7.70;90.20;;;;;;5032007;28;19928;-76
2022/12/18 01:26:13;;;;;;;;;;;-7.70;90.20;;;;;;5017787;28;20343;-74
2022/12/18 01:28:39;;;;;;;;;;;-7.80;90.10;;;;;;5032091;28;19920;-75
2022/12/18 01:31:17;;;;;;;;;;;-7.80;90.10;;;;;;5049698;28;20063;-76
2022/12/18 01:33:42;;;;;;;;;;;-7.80;90.20;;;;;;5035604;28;19924;-76
2022/12/18 01:36:08;;;;;;;;;;;-7.70;90.20;;;;;;5016228;28;19921;-75
2022/12/18 01:38:34;;;;;;;;;;;-7.70;90.60;;;;;;5032429;28;19920;-76
2022/12/18 01:41:00;;;;;;;;;;;-7.70;90.20;;;;;;5017098;28;19924;-75
2022/12/18 01:44:00;;;;;;;;;;;-7.70;90.20;;;;;;5049658;28;19951;-75
2022/12/18 01:46:26;;;;;;;;;;;-7.70;90.20;;;;;;4955677;28;19925;-75
2022/12/18 01:48:58;;;;;;;;;;;-7.80;90.20;;;;;;4970607;28;19929;-76
2022/12/18 01:51:23;;;;;;;;;;;-7.80;90.20;;;;;;4954219;28;20008;-76
2022/12/18 01:53:49;;;;;;;;;;;-7.80;90.20;;;;;;4955743;28;20539;-76
2022/12/18 01:56:15;;;;;;;;;;;-7.80;90.20;;;;;;4967950;28;19926;-76
2022/12/18 01:58:59;;;;;;;;;;;-7.90;90.20;;;;;;4971400;28;19929;-76
2022/12/18 02:01:24;;;;;;;;;;;-7.90;90.20;;;;;;4953713;28;19917;-75
2022/12/18 02:03:51;;;;;;;;;;;-7.90;90.10;;;;;;4958112;28;19921;-75
2022/12/18 02:06:21;;;;;;;;;;;-7.90;90.10;;;;;;4954358;28;20659;-75
2022/12/18 02:08:58;;;;;;;;;;;-8.00;90.10;;;;;;4954265;28;20318;-76
2022/12/18 02:11:23;;;;;;;;;;;-8.00;90.10;;;;;;4956335;28;20539;-76
2022/12/18 02:13:54;;;;;;;;;;;-8.00;90.20;;;;;;4955348;28;19937;-76
2022/12/18 02:16:40;;;;;;;;;;;-8.00;90.20;;;;;;4939918;28;19962;-76
2022/12/18 02:19:15;;;;;;;;;;;-8.00;90.20;;;;;;4968854;28;19932;-76
2022/12/18 02:21:59;;;;;;;;;;;-8.00;90.30;;;;;;5033569;28;19999;-76
2022/12/18 02:24:44;;;;;;;;;;;-8.00;90.30;;;;;;5032819;28;19920;-75
2022/12/18 02:27:09;;;;;;;;;;;-8.00;90.30;;;;;;5031215;28;19929;-74
2022/12/18 02:29:37;;;;;;;;;;;-8.00;90.20;;;;;;5032480;28;19925;-76
2022/12/18 02:32:04;;;;;;;;;;;-8.00;90.30;;;;;;5032090;28;19921;-76
2022/12/18 02:34:30;;;;;;;;;;;-8.00;90.20;;;;;;5033209;28;19921;-76
2022/12/18 02:36:55;;;;;;;;;;;-8.00;90.30;;;;;;5034293;28;20020;-75
2022/12/18 02:39:21;;;;;;;;;;;-8.10;90.20;;;;;;5048316;28;20003;-76
2022/12/18 02:41:46;;;;;;;;;;;-8.10;90.20;;;;;;5034055;28;19921;-76
2022/12/18 02:44:13;;;;;;;;;;;-8.10;90.20;;;;;;5033501;28;20055;-76
2022/12/18 02:46:45;;;;;;;;;;;-8.10;90.20;;;;;;5045774;28;19932;-76
2022/12/18 02:49:30;;;;;;;;;;;-8.10;90.20;;;;;;5048509;28;20330;-75
2022/12/18 02:52:07;;;;;;;;;;;-8.10;90.20;;;;;;5031731;28;19943;-75
2022/12/18 02:54:36;;;;;;;;;;;-8.20;90.20;;;;;;5047919;28;19971;-75
2022/12/18 02:57:05;;;;;;;;;;;-8.20;90.20;;;;;;5045061;28;19932;-75
2022/12/18 02:59:33;;;;;;;;;;;-8.20;90.20;;;;;;5032925;28;20387;-76
2022/12/18 03:02:02;;;;;;;;;;;-8.20;90.20;;;;;;5033318;28;19931;-76
2022/12/18 03:04:29;;;;;;;;;;;-8.20;90.20;;;;;;5031391;28;19921;-75
2022/12/18 03:06:56;;;;;;;;;;;-8.20;90.20;;;;;;5030854;28;19925;-75
2022/12/18 03:09:22;;;;;;;;;;;-8.20;90.20;;;;;;5027769;28;19925;-76
2022/12/18 03:14:33;;;;;;;;;;;-8.20;90.20;;;;;;5023896;28;19930;-75
2022/12/18 03:17:00;;;;;;;;;;;-8.20;90.20;;;;;;5043097;28;19925;-74
2022/12/18 03:19:26;;;;;;;;;;;-8.30;90.30;;;;;;5014165;28;19917;-75
2022/12/18 03:21:52;;;;;;;;;;;-8.30;90.30;;;;;;5017023;28;19947;-75
2022/12/18 03:24:17;;;;;;;;;;;-8.20;90.30;;;;;;5032508;28;19920;-76
2022/12/18 03:26:44;;;;;;;;;;;-8.20;90.30;;;;;;5032895;28;19929;-76
2022/12/18 03:29:12;;;;;;;;;;;-8.20;90.30;;;;;;5047785;28;20406;-76
2022/12/18 03:31:37;;;;;;;;;;;-8.20;90.30;;;;;;5015129;28;19960;-76
2022/12/18 03:34:04;;;;;;;;;;;-8.30;90.20;;;;;;5033659;28;19970;-76
2022/12/18 03:36:29;;;;;;;;;;;-8.30;90.20;;;;;;5030530;28;19917;-76
2022/12/18 03:38:55;;;;;;;;;;;-8.30;90.20;;;;;;5030163;28;20631;-76
2022/12/18 03:41:31;;;;;;;;;;;-8.40;90.20;;;;;;5031895;28;19920;-76
2022/12/18 03:44:15;;;;;;;;;;;-8.40;90.20;;;;;;5015633;28;19936;-76
2022/12/18 03:46:52;;;;;;;;;;;-8.40;90.20;;;;;;5032654;28;19924;-76
2022/12/18 03:49:26;;;;;;;;;;;-8.40;90.20;;;;;;5033062;28;19986;-75
2022/12/18 03:51:52;;;;;;;;;;;-8.50;90.20;;;;;;5031567;28;20024;-75
2022/12/18 03:54:18;;;;;;;;;;;-8.40;90.30;;;;;;5015048;28;19925;-74
2022/12/18 03:56:44;;;;;;;;;;;-8.40;90.30;;;;;;5033250;28;20399;-75
2022/12/18 03:59:10;;;;;;;;;;;-8.50;90.20;;;;;;5032758;28;19925;-75
2022/12/18 04:01:37;;;;;;;;;;;-8.50;90.20;;;;;;5036988;28;19924;-76
2022/12/18 04:04:02;;;;;;;;;;;-8.50;90.30;;;;;;5051751;28;19947;-75
2022/12/18 04:06:28;;;;;;;;;;;-8.50;90.20;;;;;;5032279;28;22206;-76
2022/12/18 04:08:53;;;;;;;;;;;-8.50;90.30;;;;;;5037550;28;20023;-76
2022/12/18 04:11:19;;;;;;;;;;;-8.50;90.30;;;;;;5030998;28;19924;-74
2022/12/18 04:13:44;;;;;;;;;;;-8.50;90.30;;;;;;5020173;28;19921;-76
2022/12/18 04:16:09;;;;;;;;;;;-8.50;90.30;;;;;;5035329;28;19925;-75
2022/12/18 04:18:36;;;;;;;;;;;-8.50;90.30;;;;;;5033754;28;19924;-76
2022/12/18 04:21:01;;;;;;;;;;;-8.50;90.30;;;;;;5033512;28;19921;-76
2022/12/18 04:23:28;;;;;;;;;;;-8.50;90.30;;;;;;5033938;28;19928;-76
2022/12/18 04:25:53;;;;;;;;;;;-8.50;90.30;;;;;;5021663;28;20425;-76
2022/12/18 04:28:19;;;;;;;;;;;-8.50;90.30;;;;;;5035169;28;19920;-76
2022/12/18 04:30:49;;;;;;;;;;;-8.60;90.30;;;;;;5034739;28;19955;-76
2022/12/18 04:33:14;;;;;;;;;;;-8.60;90.30;;;;;;5036224;28;19925;-76
2022/12/18 04:35:39;;;;;;;;;;;-8.60;90.30;;;;;;5036011;28;20581;-75
2022/12/18 04:38:05;;;;;;;;;;;-8.60;90.30;;;;;;5049774;28;20046;-75
2022/12/18 04:40:31;;;;;;;;;;;-8.60;90.30;;;;;;5035077;28;20414;-76
2022/12/18 04:42:56;;;;;;;;;;;-8.60;90.30;;;;;;5036684;28;20252;-76
2022/12/18 04:45:22;;;;;;;;;;;-8.60;90.30;;;;;;5018362;28;19984;-76
2022/12/18 04:47:47;;;;;;;;;;;-8.60;90.30;;;;;;5035899;28;19929;-76
2022/12/18 04:50:13;;;;;;;;;;;-8.70;90.30;;;;;;5020923;28;20406;-75
2022/12/18 04:52:38;;;;;;;;;;;-8.60;90.30;;;;;;5033690;28;19925;-76
2022/12/18 04:55:04;;;;;;;;;;;-8.70;90.30;;;;;;5034802;28;19921;-76
2022/12/18 04:57:29;;;;;;;;;;;-8.60;90.30;;;;;;5034970;28;19921;-75
2022/12/18 04:59:55;;;;;;;;;;;-8.70;90.30;;;;;;5017652;28;20448;-75
2022/12/18 05:02:20;;;;;;;;;;;-8.70;90.30;;;;;;5033279;28;19924;-76
2022/12/18 05:04:46;;;;;;;;;;;-8.60;90.30;;;;;;5034329;28;19928;-76
2022/12/18 05:07:11;;;;;;;;;;;-8.60;90.30;;;;;;5034414;28;19925;-75
2022/12/18 05:09:37;;;;;;;;;;;-8.70;90.30;;;;;;5034280;28;20071;-76
2022/12/18 05:12:02;;;;;;;;;;;-8.70;90.30;;;;;;5016659;28;20448;-75
2022/12/18 05:14:29;;;;;;;;;;;-8.70;90.30;;;;;;5042743;28;21504;-76
2022/12/18 05:16:54;;;;;;;;;;;-8.70;90.30;;;;;;5036031;28;20501;-75
2022/12/18 05:19:20;;;;;;;;;;;-8.70;90.30;;;;;;5032129;28;19932;-75
2022/12/18 05:21:45;;;;;;;;;;;-8.70;90.20;;;;;;5030097;28;19928;-76
2022/12/18 05:24:11;;;;;;;;;;;-8.80;90.20;;;;;;5033430;28;19932;-75
2022/12/18 05:26:36;;;;;;;;;;;-8.80;90.20;;;;;;5030966;28;19932;-75
2022/12/18 05:29:02;;;;;;;;;;;-8.80;90.20;;;;;;5029716;28;19917;-76
2022/12/18 05:31:27;;;;;;;;;;;-8.90;90.20;;;;;;5034421;28;19917;-76
2022/12/18 05:33:53;;;;;;;;;;;-8.90;90.20;;;;;;5033002;28;19986;-75
2022/12/18 05:36:19;;;;;;;;;;;-8.90;90.20;;;;;;5031961;28;19979;-75
2022/12/18 05:38:44;;;;;;;;;;;-8.90;90.20;;;;;;5032265;28;20008;-76
2022/12/18 05:41:10;;;;;;;;;;;-8.90;90.20;;;;;;5033950;28;19995;-75
2022/12/18 05:43:36;;;;;;;;;;;-9.00;90.20;;;;;;5034454;28;19924;-75
2022/12/18 05:46:09;;;;;;;;;;;-9.00;90.20;;;;;;5034859;28;20016;-76
2022/12/18 05:48:34;;;;;;;;;;;-9.00;90.20;;;;;;5033663;28;20002;-75
2022/12/18 05:51:09;;;;;;;;;;;-9.00;90.30;;;;;;5049215;28;20423;-75
2022/12/18 05:53:35;;;;;;;;;;;-9.10;90.20;;;;;;5031740;28;19924;-75
2022/12/18 05:56:03;;;;;;;;;;;-9.10;90.20;;;;;;5017759;28;20390;-76
2022/12/18 05:58:28;;;;;;;;;;;-9.10;90.30;;;;;;5012999;28;21909;-75
2022/12/18 06:01:17;;;;;;;;;;;-9.10;90.30;;;;;;5032522;28;20585;-73
2022/12/18 06:03:42;;;;;;;;;;;-9.10;90.30;;;;;;5024765;28;19921;-75
2022/12/18 06:06:14;;;;;;;;;;;-9.10;90.30;;;;;;5011903;28;19983;-75
2022/12/18 06:08:40;;;;;;;;;;;-9.10;90.30;;;;;;5029226;28;19921;-75
2022/12/18 06:11:05;;;;;;;;;;;-9.10;90.30;;;;;;5049746;28;19932;-76
2022/12/18 06:13:31;;;;;;;;;;;-9.10;90.30;;;;;;5048121;28;19921;-76
2022/12/18 06:15:56;;;;;;;;;;;-9.10;90.30;;;;;;5032280;28;20450;-76
2022/12/18 06:18:21;;;;;;;;;;;-9.20;90.30;;;;;;5030748;28;19925;-76
2022/12/18 06:20:54;;;;;;;;;;;-9.20;90.30;;;;;;5032680;28;19971;-76
2022/12/18 06:23:19;;;;;;;;;;;-9.20;90.30;;;;;;5030007;28;20418;-75
2022/12/18 06:25:45;;;;;;;;;;;-9.20;90.30;;;;;;5028387;28;20392;-73
2022/12/18 06:28:10;;;;;;;;;;;-9.20;90.30;;;;;;5032635;28;20012;-74
2022/12/18 06:30:36;;;;;;;;;;;-9.20;90.30;;;;;;5034746;28;19932;-76
2022/12/18 06:33:01;;;;;;;;;;;-9.20;90.30;;;;;;5030332;28;19971;-75
2022/12/18 06:35:27;;;;;;;;;;;-9.20;90.30;;;;;;5014420;28;20680;-74
2022/12/18 06:37:52;;;;;;;;;;;-9.20;90.30;;;;;;5014066;28;19921;-76
2022/12/18 06:40:18;;;;;;;;;;;-9.20;90.30;;;;;;5032380;28;19921;-75
2022/12/18 06:42:43;;;;;;;;;;;-9.20;90.40;;;;;;5033970;28;21272;-74
2022/12/18 06:45:09;;;;;;;;;;;-9.20;90.40;;;;;;5030875;28;19921;-74
2022/12/18 06:47:34;;;;;;;;;;;-9.20;90.30;;;;;;5030216;28;19925;-75
2022/12/18 06:50:00;;;;;;;;;;;-9.20;90.40;;;;;;5032043;28;20525;-76
2022/12/18 06:52:25;;;;;;;;;;;-9.20;90.40;;;;;;5044898;28;19927;-75
2022/12/18 06:54:51;;;;;;;;;;;-9.20;90.40;;;;;;5032436;28;20424;-75
2022/12/18 06:57:16;;;;;;;;;;;-9.20;90.40;;;;;;5014455;28;19921;-75
2022/12/18 06:59:42;;;;;;;;;;;-9.20;90.40;;;;;;5044076;28;20572;-75
2022/12/18 07:02:10;;;;;;;;;;;-9.20;90.30;;;;;;5031368;28;19978;-74
2022/12/18 07:04:35;;;;;;;;;;;-9.20;90.40;;;;;;5030901;28;19947;-75
2022/12/18 07:07:01;;;;;;;;;;;-9.30;90.30;;;;;;5015476;28;19925;-75
2022/12/18 07:09:26;;;;;;;;;;;-9.30;90.30;;;;;;5029613;28;20391;-75
2022/12/18 07:11:53;;;;;;;;;;;-9.30;90.30;;;;;;5031883;28;19952;-75
2022/12/18 07:14:18;;;;;;;;;;;-9.40;90.20;;;;;;5013793;28;19936;-75
2022/12/18 07:16:44;;;;;;;;;;;-9.40;90.30;;;;;;5030013;28;20074;-76
2022/12/18 07:19:09;;;;;;;;;;;-9.40;90.30;;;;;;5031771;28;20530;-75
2022/12/18 07:21:35;;;;;;;;;;;-9.40;90.30;;;;;;5045809;28;19932;-75
2022/12/18 07:24:01;;;;;;;;;;;-9.40;90.30;;;;;;5014126;28;19921;-76
2022/12/18 07:26:26;;;;;;;;;;;-9.40;90.30;;;;;;5031099;28;20007;-75
2022/12/18 07:28:54;;;;;;;;;;;-9.50;90.30;;;;;;5033462;28;19920;-76
2022/12/18 07:31:20;;;;;;;;;;;-9.40;90.40;;;;;;5042619;28;19921;-75
2022/12/18 07:33:45;;;;;;;;;;;-9.40;90.40;;;;;;5015655;28;19927;-75
2022/12/18 07:36:11;;;;;;;;;;;-9.40;90.40;;;;;;5019347;28;19921;-76
2022/12/18 07:38:36;;;;;;;;;;;-9.40;90.40;;;;;;5018817;28;20374;-76
2022/12/18 07:41:02;;;;;;;;;;;-9.40;90.40;;;;;;5033594;28;20725;-76
2022/12/18 07:43:28;;;;;;;;;;;-9.30;90.50;;;;;;5049417;28;20002;-75
2022/12/18 07:45:53;;;;;;;;;;;-9.30;90.50;;;;;;5035639;28;20004;-75
2022/12/18 07:48:19;;;;;;;;;;;-9.20;90.50;;;;;;5036266;28;19977;-76
2022/12/18 07:50:44;;;;;;;;;;;-9.20;90.50;;;;;;5035477;28;19988;-77
2022/12/18 07:53:10;;;;;;;;;;;-9.20;90.50;;;;;;5037983;28;19928;-76
2022/12/18 07:55:35;;;;;;;;;;;-9.20;90.50;;;;;;5037917;28;20803;-77
2022/12/18 07:58:02;;;;;;;;;;;-9.10;90.50;;;;;;5038947;28;20003;-75
2022/12/18 08:00:27;;;;;;;;;;;-9.10;90.50;;;;;;5021582;28;19921;-76
2022/12/18 08:02:53;;;;;;;;;;;-9.10;90.50;;;;;;5035349;28;19924;-76
2022/12/18 08:05:18;;;;;;;;;;;-9.00;90.50;;;;;;5050074;28;19925;-75
2022/12/18 08:07:44;;;;;;;;;;;-9.00;90.50;;;;;;5039105;28;20000;-76
2022/12/18 08:10:09;;;;;;;;;;;-8.90;90.50;;;;;;5021573;28;20039;-75
2022/12/18 08:12:35;;;;;;;;;;;-8.90;90.50;;;;;;5033895;28;22762;-76
2022/12/18 08:15:00;;;;;;;;;;;-8.90;90.50;;;;;;5034237;28;20004;-75
2022/12/18 08:17:26;;;;;;;;;;;-8.80;90.60;;;;;;5035368;28;20612;-75
2022/12/18 08:19:51;;;;;;;;;;;-8.80;90.50;;;;;;5039780;28;19920;-76
2022/12/18 08:22:16;;;;;;;;;;;-8.70;90.50;;;;;;5030919;28;19960;-75
2022/12/18 08:24:42;;;;;;;;;;;-8.70;90.50;;;;;;5032519;28;20045;-75
2022/12/18 08:27:07;;;;;;;;;;;-8.70;90.50;;;;;;5032937;28;19933;-76
2022/12/18 08:29:33;;;;;;;;;;;-8.60;90.60;;;;;;5033365;28;19927;-74
2022/12/18 08:31:59;;;;;;;;;;;-8.60;90.60;;;;;;5036751;28;19998;-76
2022/12/18 08:34:24;;;;;;;;;;;-8.50;90.60;;;;;;5034512;28;19925;-74
2022/12/18 08:36:49;;;;;;;;;;;-8.50;90.60;;;;;;5036797;28;19929;-76
2022/12/18 08:39:15;;;;;;;;;;;-8.50;90.60;;;;;;5034371;28;19928;-76
2022/12/18 08:41:40;;;;;;;;;;;-8.40;90.60;;;;;;5033664;28;20357;-76
2022/12/18 08:46:51;;;;;;;;;;;-8.30;90.60;;;;;;5032925;28;19978;-75
2022/12/18 08:49:16;;;;;;;;;;;-8.30;90.60;;;;;;5050835;28;19924;-76
2022/12/18 08:51:42;;;;;;;;;;;-8.20;90.60;;;;;;5020994;28;19921;-76
2022/12/18 08:54:08;;;;;;;;;;;-8.10;90.60;;;;;;5036364;28;19928;-76
2022/12/18 08:56:34;;;;;;;;;;;-8.10;90.60;;;;;;5033723;28;19921;-76
2022/12/18 08:59:00;;;;;;;;;;;-8.10;90.60;;;;;;5050004;28;19917;-73
2022/12/18 09:01:25;;;;;;;;;;;-8.00;90.60;;;;;;5037620;28;20000;-76
2022/12/18 09:03:51;;;;;;;;;;;-7.90;90.60;;;;;;5036414;28;19924;-76
2022/12/18 09:06:17;;;;;;;;;;;-7.90;90.60;;;;;;5035298;28;20610;-75
2022/12/18 09:08:43;;;;;;;;;;;-7.80;90.60;;;;;;5031915;28;20473;-76
2022/12/18 09:11:18;;;;;;;;;;;-7.80;90.50;;;;;;5047499;28;20300;-74
2022/12/18 09:13:43;;;;;;;;;;;-7.70;90.50;;;;;;5032384;28;19929;-74
2022/12/18 09:16:09;;;;;;;;;;;-7.70;90.50;;;;;;5033761;28;19921;-74
2022/12/18 09:18:35;;;;;;;;;;;-7.60;90.50;;;;;;5033523;28;19925;-76
2022/12/18 09:21:06;;;;;;;;;;;-7.60;90.50;;;;;;5033184;28;20310;-75
2022/12/18 09:23:32;;;;;;;;;;;-7.50;90.50;;;;;;5030724;28;20604;-75
2022/12/18 09:26:00;;;;;;;;;;;-7.40;90.60;;;;;;5051046;28;19929;-74
2022/12/18 09:28:26;;;;;;;;;;;-7.40;90.60;;;;;;5044681;28;19924;-73
2022/12/18 09:30:51;;;;;;;;;;;-7.30;90.50;;;;;;5035544;28;19943;-76
2022/12/18 09:33:16;;;;;;;;;;;-7.20;90.50;;;;;;5033299;28;19928;-75
2022/12/18 09:35:42;;;;;;;;;;;-7.20;90.50;;;;;;5034610;28;19921;-75
2022/12/18 09:38:08;;;;;;;;;;;-7.10;90.50;;;;;;5030615;28;19928;-77
2022/12/18 09:40:35;;;;;;;;;;;-7.10;90.50;;;;;;5031024;28;20022;-75
2022/12/18 09:43:00;;;;;;;;;;;-7.00;90.90;;;;;;5046473;28;19936;-73
2022/12/18 09:45:26;;;;;;;;;;;-6.90;90.50;;;;;;5032256;28;19975;-75
2022/12/18 09:47:52;;;;;;;;;;;-6.90;90.50;;;;;;5034724;28;20456;-74
2022/12/18 09:50:24;;;;;;;;;;;-6.80;90.50;;;;;;5036165;28;20011;-75
2022/12/18 09:52:52;;;;;;;;;;;-6.80;90.50;;;;;;5032555;28;19921;-75
2022/12/18 09:55:17;;;;;;;;;;;-6.60;90.50;;;;;;5050288;28;19921;-76
2022/12/18 09:57:45;;;;;;;;;;;-6.60;90.50;;;;;;5034020;28;19921;-75
2022/12/18 10:00:18;;;;;;;;;;;-6.60;90.50;;;;;;5033013;28;19933;-75
2022/12/18 10:02:43;;;;;;;;;;;-6.50;90.50;;;;;;5035685;28;19956;-75
2022/12/18 10:05:41;;;;;;;;;;;-6.40;90.50;;;;;;5034050;28;19952;-75
2022/12/18 10:08:15;;;;;;;;;;;-6.40;90.50;;;;;;4999019;28;19917;-76
2022/12/18 10:10:48;;;;;;;;;;;-6.30;90.40;;;;;;5031085;28;19924;-75
2022/12/18 10:13:16;;;;;;;;;;;-6.30;90.40;;;;;;5008093;28;19970;-76
2022/12/18 10:15:50;;;;;;;;;;;-6.20;90.40;;;;;;5032695;28;20338;-75
2022/12/18 10:18:15;;;;;;;;;;;-6.10;90.40;;;;;;5049747;28;19924;-75
2022/12/18 10:20:43;;;;;;;;;;;-6.10;90.40;;;;;;5032976;28;19920;-76
2022/12/18 10:23:12;;;;;;;;;;;-6.00;90.40;;;;;;5033826;28;20570;-74
2022/12/18 10:25:40;;;;;;;;;;;-5.90;90.40;;;;;;5033475;28;19929;-76
2022/12/18 10:28:12;;;;;;;;;;;-5.90;90.40;;;;;;5034842;28;20280;-76
2022/12/18 10:30:38;;;;;;;;;;;-5.80;90.40;;;;;;5030196;28;19924;-76
2022/12/18 10:33:04;;;;;;;;;;;-5.70;90.40;;;;;;5033085;28;19977;-76
2022/12/18 10:35:29;;;;;;;;;;;-5.70;90.40;;;;;;5017428;28;20350;-76
2022/12/18 10:38:05;;;;;;;;;;;-5.60;90.40;;;;;;5050978;28;19936;-76
2022/12/18 10:40:30;;;;;;;;;;;-5.60;90.30;;;;;;5030673;28;19920;-76
2022/12/18 10:43:05;;;;;;;;;;;-5.50;90.30;;;;;;5032709;28;19927;-75
2022/12/18 10:45:31;;;;;;;;;;;-5.50;90.30;;;;;;5034151;28;19933;-76
2022/12/18 10:47:57;;;;;;;;;;;-5.40;90.30;;;;;;5048698;28;19921;-76
2022/12/18 10:50:28;;;;;;;;;;;-5.30;90.30;;;;;;5034818;28;20371;-75
2022/12/18 10:53:00;;;;;;;;;;;-5.30;90.30;;;;;;5023213;28;19920;-76
2022/12/18 10:55:33;;;;;;;;;;;-5.20;90.30;;;;;;5032939;28;20002;-75
2022/12/18 10:58:17;;;;;;;;;;;-5.20;90.30;;;;;;5035488;28;20000;-77
2022/12/18 11:00:43;;;;;;;;;;;-5.20;90.20;;;;;;5048043;28;19917;-76
2022/12/18 11:03:28;;;;;;;;;;;-5.10;90.20;;;;;;5048644;28;19983;-74
2022/12/18 11:06:04;;;;;;;;;;;-5.10;90.20;;;;;;5035181;28;19924;-76
2022/12/18 11:08:29;;;;;;;;;;;-5.00;90.20;;;;;;5027221;28;20470;-76
2022/12/18 11:10:55;;;;;;;;;;;-4.90;90.20;;;;;;5036108;28;19928;-76
2022/12/18 11:13:21;;;;;;;;;;;-4.90;90.20;;;;;;5038153;28;19921;-75
2022/12/18 11:15:46;;;;;;;;;;;-4.80;90.20;;;;;;5035446;28;19967;-75
2022/12/18 11:18:16;;;;;;;;;;;-4.80;90.20;;;;;;5037166;28;20010;-75
2022/12/18 11:20:41;;;;;;;;;;;-4.70;90.20;;;;;;5038261;28;19921;-75
2022/12/18 11:23:12;;;;;;;;;;;-4.70;90.20;;;;;;5036081;28;19927;-75
2022/12/18 11:25:38;;;;;;;;;;;-4.60;90.20;;;;;;5036082;28;19995;-75
2022/12/18 11:28:04;;;;;;;;;;;-4.60;90.10;;;;;;5033802;28;19921;-75
2022/12/18 11:30:30;;;;;;;;;;;-4.50;90.20;;;;;;5039113;28;20441;-75
2022/12/18 11:33:06;;;;;;;;;;;-4.50;90.10;;;;;;5055423;28;19921;-76
2022/12/18 11:35:31;;;;;;;;;;;-4.40;90.10;;;;;;5038927;28;19928;-76
2022/12/18 11:37:57;;;;;;;;;;;-4.40;90.10;;;;;;5035057;28;19924;-76
2022/12/18 11:40:31;;;;;;;;;;;-4.30;90.10;;;;;;5038138;28;20570;-75
2022/12/18 11:42:56;;;;;;;;;;;-4.30;90.10;;;;;;5051911;28;19931;-76
2022/12/18 11:45:28;;;;;;;;;;;-4.20;90.10;;;;;;5035671;28;19921;-76
2022/12/18 11:47:56;;;;;;;;;;;-4.20;90.10;;;;;;5036451;28;19928;-75
2022/12/18 11:50:24;;;;;;;;;;;-4.10;90.10;;;;;;5033188;28;19921;-76
2022/12/18 11:52:49;;;;;;;;;;;-4.10;90.10;;;;;;5035551;28;20365;-76
2022/12/18 11:55:16;;;;;;;;;;;-4.00;90.10;;;;;;5033088;28;19931;-75
2022/12/18 11:57:41;;;;;;;;;;;-4.00;90.10;;;;;;5037567;28;19925;-76
2022/12/18 12:00:14;;;;;;;;;;;-3.90;90.10;;;;;;5038104;28;19928;-76
2022/12/18 12:02:58;;;;;;;;;;;-3.90;90.00;;;;;;5035546;28;19925;-76
2022/12/18 12:05:42;;;;;;;;;;;-3.80;90.10;;;;;;5049734;28;19936;-76
2022/12/18 12:08:10;;;;;;;;;;;-3.80;90.10;;;;;;5036623;28;20016;-77
2022/12/18 12:10:36;;;;;;;;;;;-3.70;90.10;;;;;;5036349;28;19986;-76
2022/12/18 12:13:20;;;;;;;;;;;-3.70;90.00;;;;;;5040439;28;19921;-77
2022/12/18 12:15:48;;;;;;;;;;;-3.70;90.00;;;;;;5039432;28;19913;-77
2022/12/18 12:18:17;;;;;;;;;;;-3.60;90.00;;;;;;5036273;28;19967;-76
2022/12/18 12:20:55;;;;;;;;;;;-3.60;90.00;;;;;;5050048;28;19959;-76
2022/12/18 12:23:26;;;;;;;;;;;-3.50;90.00;;;;;;5036283;28;19925;-76
2022/12/18 12:26:00;;;;;;;;;;;-3.50;90.00;;;;;;5055327;28;19928;-77
2022/12/18 12:28:34;;;;;;;;;;;-3.40;90.00;;;;;;5036121;28;19917;-77
2022/12/18 12:31:18;;;;;;;;;;;-3.40;90.00;;;;;;5034743;28;19921;-76
2022/12/18 12:33:48;;;;;;;;;;;-3.30;90.00;;;;;;5040431;28;20851;-77
2022/12/18 12:36:22;;;;;;;;;;;-3.30;90.00;;;;;;5050059;28;20030;-77
2022/12/18 12:38:50;;;;;;;;;;;-3.20;90.00;;;;;;5038250;28;20008;-76
2022/12/18 12:44:02;;;;;;;;;;;-3.20;89.90;;;;;;5037530;28;20370;-75
2022/12/18 12:46:27;;;;;;;;;;;-3.20;90.00;;;;;;5034890;28;19925;-75
2022/12/18 12:48:54;;;;;;;;;;;-3.10;90.00;;;;;;5021108;28;19921;-77
2022/12/18 12:51:21;;;;;;;;;;;-3.10;89.90;;;;;;5036846;28;19928;-76
2022/12/18 12:53:46;;;;;;;;;;;-3.10;89.90;;;;;;5035590;28;19924;-77
2022/12/18 12:56:13;;;;;;;;;;;-3.00;89.90;;;;;;5033268;28;19921;-77
2022/12/18 12:58:41;;;;;;;;;;;-3.00;89.90;;;;;;5035672;28;19925;-76
2022/12/18 13:01:10;;;;;;;;;;;-2.90;89.90;;;;;;5030495;28;20411;-77
2022/12/18 13:03:41;;;;;;;;;;;-2.90;89.80;;;;;;5033863;28;19960;-76
2022/12/18 13:06:19;;;;;;;;;;;-2.90;89.80;;;;;;5038678;28;19925;-75
2022/12/18 13:08:53;;;;;;;;;;;-2.90;89.80;;;;;;5034661;28;19948;-77
2022/12/18 13:14:20;;;;;;;;;;;-2.80;89.80;;;;;;4996957;28;19928;-78
2022/12/18 13:16:45;;;;;;;;;;;-2.70;89.90;;;;;;4996816;28;19925;-77
2022/12/18 13:19:19;;;;;;;;;;;-2.70;89.80;;;;;;5000245;28;19929;-77
2022/12/18 13:21:44;;;;;;;;;;;-2.70;89.70;;;;;;4995342;28;19925;-78
2022/12/18 13:24:22;;;;;;;;;;;-2.60;89.70;;;;;;4994933;28;19932;-77
2022/12/18 13:26:48;;;;;;;;;;;-2.60;89.80;;;;;;4991758;28;19930;-77
2022/12/18 13:29:15;;;;;;;;;;;-2.60;89.70;;;;;;5006692;28;19918;-77
2022/12/18 13:31:40;;;;;;;;;;;-2.50;89.90;;;;;;4993247;28;19925;-76
2022/12/18 13:34:24;;;;;;;;;;;-2.50;89.80;;;;;;4997918;28;19976;-77
2022/12/18 13:36:50;;;;;;;;;;;-2.50;89.70;;;;;;4989110;28;19921;-77
2022/12/18 13:39:18;;;;;;;;;;;-2.50;89.70;;;;;;4995320;28;20516;-76
2022/12/18 13:41:44;;;;;;;;;;;-2.50;89.60;;;;;;4994269;28;19929;-77
2022/12/18 13:44:30;;;;;;;;;;;-2.40;89.70;;;;;;5011828;28;22367;-77
2022/12/18 13:46:55;;;;;;;;;;;-2.40;89.60;;;;;;4995400;28;19929;-77
2022/12/18 13:49:23;;;;;;;;;;;-2.40;89.60;;;;;;4994266;28;19917;-77
2022/12/18 13:51:49;;;;;;;;;;;-2.30;89.70;;;;;;4996523;28;20005;-77
2022/12/18 13:54:25;;;;;;;;;;;-2.30;89.70;;;;;;5006750;28;20490;-76
2022/12/18 13:56:50;;;;;;;;;;;-2.30;89.60;;;;;;4993011;28;20418;-75
2022/12/18 13:59:16;;;;;;;;;;;-2.30;89.60;;;;;;4996388;28;19917;-77
2022/12/18 14:02:01;;;;;;;;;;;-2.20;89.60;;;;;;4994036;28;20610;-77
2022/12/18 14:04:28;;;;;;;;;;;-2.20;89.60;;;;;;4998023;28;19961;-76
2022/12/18 14:06:57;;;;;;;;;;;-2.20;89.60;;;;;;4996570;28;19925;-77
2022/12/18 14:09:26;;;;;;;;;;;-2.20;89.60;;;;;;5002547;28;20587;-77
2022/12/18 14:11:52;;;;;;;;;;;-2.20;89.60;;;;;;5017394;28;20058;-77
2022/12/18 14:14:17;;;;;;;;;;;-2.20;89.60;;;;;;5035965;28;19924;-75
2022/12/18 14:16:43;;;;;;;;;;;-2.20;89.60;;;;;;5018287;28;19952;-75
2022/12/18 14:19:15;;;;;;;;;;;-2.20;89.60;;;;;;5035581;28;19942;-74
2022/12/18 14:21:44;;;;;;;;;;;-2.10;89.60;;;;;;5034978;28;20383;-75
2022/12/18 14:24:13;;;;;;;;;;;-2.10;89.60;;;;;;5032548;28;19921;-74
2022/12/18 14:26:39;;;;;;;;;;;-2.10;89.60;;;;;;5032374;28;20407;-75
2022/12/18 14:29:23;;;;;;;;;;;-2.10;89.60;;;;;;5016517;28;19927;-75
2022/12/18 14:32:07;;;;;;;;;;;-2.10;89.60;;;;;;5035280;28;20572;-75
2022/12/18 14:34:33;;;;;;;;;;;-2.10;89.50;;;;;;5033317;28;20458;-75